Time;durP1;ratioP1;P1;durP2;ratioP2;P2;SDS_P1;SDS_P2;PMS_P1;PMS_P2;Temp;Humidity;BMP_temperature;BMP_pressure;BME280_temperature;BME280_humidity;BME280_pressure;Samples;Min_cycle;Max_cycle;Signal;HPM_P1;HPM_P2
2021/04/08 00:00:08;;;;;;;9.25;5.83;;;;;;;0.59;87.08;98177.81;1795718;80;21117;-59
2021/04/08 00:02:42;;;;;;;13.30;6.30;;;;;;;0.61;87.00;98177.47;1795830;80;21535;-59
2021/04/08 00:05:13;;;;;;;12.50;6.40;;;;;;;0.60;86.94;98174.86;1795778;80;21257;-60
2021/04/08 00:07:42;;;;;;;11.60;5.90;;;;;;;0.61;87.00;98172.39;1795835;80;21658;-60
2021/04/08 00:10:12;;;;;;;11.33;6.65;;;;;;;0.62;86.95;98171.57;1795545;80;21125;-60
2021/04/08 00:12:41;;;;;;;9.53;6.05;;;;;;;0.62;86.82;98171.98;1795934;80;21652;-59
2021/04/08 00:15:14;;;;;;;9.63;5.72;;;;;;;0.59;86.81;98174.00;1784127;80;21154;-58
2021/04/08 00:17:43;;;;;;;10.03;6.08;;;;;;;0.57;86.81;98176.02;1781914;80;21726;-58
2021/04/08 00:20:19;;;;;;;10.45;6.08;;;;;;;0.55;86.82;98181.03;1782145;80;21130;-60
2021/04/08 00:22:48;;;;;;;13.78;7.85;;;;;;;0.52;86.81;98178.39;1782110;80;21290;-58
2021/04/08 00:25:16;;;;;;;13.18;6.47;;;;;;;0.48;86.86;98182.02;1782097;80;21263;-59
2021/04/08 00:27:46;;;;;;;9.95;5.97;;;;;;;0.44;86.84;98187.39;1782215;80;21267;-58
2021/04/08 00:30:15;;;;;;;13.65;7.05;;;;;;;0.44;86.89;98195.00;1781929;80;21126;-60
2021/04/08 00:32:43;;;;;;;11.80;5.65;;;;;;;0.42;86.88;98189.00;1782217;80;21517;-58
2021/04/08 00:35:11;;;;;;;10.85;6.12;;;;;;;0.39;86.86;98201.16;1781925;80;21094;-59
2021/04/08 00:37:39;;;;;;;11.63;6.42;;;;;;;0.38;86.83;98194.75;1781923;80;21138;-59
2021/04/08 00:40:12;;;;;;;12.55;6.22;;;;;;;0.35;86.81;98199.30;1782075;80;21296;-59
2021/04/08 00:42:42;;;;;;;13.45;6.10;;;;;;;0.34;86.83;98203.07;1781959;80;21098;-59
2021/04/08 00:45:11;;;;;;;10.63;5.90;;;;;;;0.31;86.79;98206.36;1782192;80;21263;-60
2021/04/08 00:47:39;;;;;;;12.03;5.83;;;;;;;0.30;86.76;98204.60;1781939;80;21151;-60
2021/04/08 00:50:09;;;;;;;13.00;6.50;;;;;;;0.30;86.68;98206.28;1782031;80;21126;-59
2021/04/08 00:52:38;;;;;;;14.45;6.55;;;;;;;0.25;86.66;98211.17;1781912;80;21276;-59
2021/04/08 00:55:07;;;;;;;9.98;6.35;;;;;;;0.26;86.71;98214.60;1756014;80;21339;-60
2021/04/08 00:57:35;;;;;;;12.65;5.78;;;;;;;0.26;86.76;98223.07;1782086;80;21162;-60
2021/04/08 01:00:06;;;;;;;11.28;6.22;;;;;;;0.27;86.66;98223.93;1781938;80;21091;-61
2021/04/08 01:02:35;;;;;;;10.18;6.50;;;;;;;0.26;86.68;98220.94;1782221;80;21177;-60
2021/04/08 01:05:04;;;;;;;10.85;6.83;;;;;;;0.26;86.67;98225.61;1781901;80;21130;-59
2021/04/08 01:07:36;;;;;;;11.67;6.37;;;;;;;0.24;86.61;98225.95;1782126;80;21106;-61
2021/04/08 01:10:08;;;;;;;;;;;;;;;0.27;86.56;98231.55;1784497;79;21130;-58
2021/04/08 01:12:36;;;;;;;13.15;6.90;;;;;;;0.28;86.51;98236.69;1782019;80;20140;-60
2021/04/08 01:15:09;;;;;;;11.95;7.17;;;;;;;0.29;86.48;98236.28;1790906;80;21315;-61
2021/04/08 01:17:56;;;;;;;11.75;7.28;;;;;;;0.27;86.42;98241.28;1795628;80;21129;-60
2021/04/08 01:20:52;;;;;;;15.28;6.97;;;;;;;0.27;86.48;98237.48;1795884;80;21142;-66
2021/04/08 01:23:59;;;;;;;12.00;6.70;;;;;;;0.29;86.34;98237.55;1795631;80;21280;-59
2021/04/08 01:27:04;;;;;;;13.58;7.25;;;;;;;0.28;86.30;98248.11;1795828;80;21111;-59
2021/04/08 01:29:55;;;;;;;11.53;7.00;;;;;;;0.28;86.30;98248.48;1794015;80;21109;-59
2021/04/08 01:32:27;;;;;;;14.25;7.90;;;;;;;0.30;86.25;98248.16;1796129;80;21308;-59
2021/04/08 01:34:59;;;;;;;12.67;7.47;;;;;;;0.30;86.12;98253.23;1795888;80;21568;-58
2021/04/08 01:37:32;;;;;;;12.60;7.30;;;;;;;0.26;86.07;98261.13;1795689;80;21117;-59
2021/04/08 01:40:02;;;;;;;14.38;6.92;;;;;;;0.24;86.06;98256.80;1795700;80;21136;-60
2021/04/08 01:42:32;;;;;;;15.23;8.10;;;;;;;0.24;86.00;98264.41;1766348;80;21082;-59
2021/04/08 01:45:02;;;;;;;12.68;7.53;;;;;;;0.23;86.03;98266.47;1795755;80;21802;-62
2021/04/08 01:47:32;;;;;;;14.03;8.07;;;;;;;0.26;86.05;98272.96;1796100;80;21255;-59
2021/04/08 01:50:13;;;;;;;12.40;6.70;;;;;;;0.28;86.02;98276.41;1734055;82;21147;-59
2021/04/08 01:52:44;;;;;;;12.70;7.42;;;;;;;0.29;85.96;98278.16;1728113;83;21317;-59
2021/04/08 01:55:13;;;;;;;13.68;7.78;;;;;;;0.28;85.92;98278.94;1728189;83;21152;-59
2021/04/08 01:57:43;;;;;;;13.78;7.83;;;;;;;0.30;85.82;98286.22;1728147;83;21179;-58
2021/04/08 02:00:15;;;;;;;13.80;7.80;;;;;;;0.26;85.76;98281.44;1728103;82;21313;-59
2021/04/08 02:02:47;;;;;;;13.13;7.72;;;;;;;0.23;85.76;98286.39;1728243;83;21295;-59
2021/04/08 02:05:17;;;;;;;16.52;7.92;;;;;;;0.20;85.83;98292.21;1728136;83;21382;-58
2021/04/08 02:07:48;;;;;;;15.00;7.85;;;;;;;0.19;85.86;98291.73;1728307;82;21599;-58
2021/04/08 02:10:17;;;;;;;14.53;8.10;;;;;;;0.18;85.88;98293.81;1728264;81;21357;-58
2021/04/08 02:12:48;;;;;;;12.75;8.05;;;;;;;0.15;85.87;98300.41;1728119;82;21152;-58
2021/04/08 02:15:19;;;;;;;13.38;9.15;;;;;;;0.12;85.91;98306.63;1728450;82;21384;-59
2021/04/08 02:17:53;;;;;;;13.18;8.95;;;;;;;0.06;85.98;98308.52;1728230;82;21164;-59
2021/04/08 02:20:27;;;;;;;13.93;7.75;;;;;;;0.06;86.00;98316.13;1728364;83;21188;-60
2021/04/08 02:22:58;;;;;;;14.15;8.53;;;;;;;0.05;86.12;98311.88;1728175;82;21289;-59
2021/04/08 02:25:36;;;;;;;15.50;8.20;;;;;;;0.07;86.17;98323.33;1728082;82;21719;-60
2021/04/08 02:28:06;;;;;;;14.70;8.15;;;;;;;0.07;86.11;98322.92;1728111;82;21172;-60
2021/04/08 02:30:46;;;;;;;21.07;9.20;;;;;;;0.06;86.19;98327.55;1728089;83;21324;-59
2021/04/08 02:33:06;;;;;;;16.50;9.25;;;;;;;0.07;86.21;98329.67;1727199;81;21166;-59
2021/04/08 02:35:34;;;;;;;14.75;8.75;;;;;;;0.08;86.20;98329.75;1728086;83;21334;-59
2021/04/08 02:38:03;;;;;;;16.15;8.93;;;;;;;0.07;86.16;98333.48;1728025;82;21582;-61
2021/04/08 02:40:31;;;;;;;19.73;8.63;;;;;;;0.05;86.14;98337.23;1728056;82;21310;-60
2021/04/08 02:42:59;;;;;;;14.28;9.53;;;;;;;0.03;86.18;98337.57;1728054;83;21180;-59
2021/04/08 02:45:28;;;;;;;15.63;8.70;;;;;;;0.02;86.23;98343.42;1712000;83;21159;-60
2021/04/08 02:47:55;;;;;;;20.35;8.88;;;;;;;0.03;86.21;98346.45;1728189;82;21171;-61
2021/04/08 02:50:24;;;;;;;18.37;9.80;;;;;;;0.04;86.19;98352.38;1718245;82;21132;-60
2021/04/08 02:53:12;;;;;;;19.00;10.45;;;;;;;0.03;86.13;98355.33;1718005;83;21160;-59
2021/04/08 02:55:48;;;;;;;14.53;9.00;;;;;;;0.03;86.13;98352.79;1718052;82;21301;-60
2021/04/08 02:58:19;;;;;;;18.00;10.45;;;;;;;0.02;86.06;98362.45;1717991;82;21151;-59
2021/04/08 03:01:01;;;;;;;19.32;10.05;;;;;;;0.02;86.00;98367.93;1718120;82;21173;-61
2021/04/08 03:03:38;;;;;;;16.57;9.78;;;;;;;0.02;86.03;98371.73;1717850;82;21196;-59
2021/04/08 03:06:09;;;;;;;17.98;9.90;;;;;;;0.02;85.96;98372.59;1718058;83;21167;-59
2021/04/08 03:08:44;;;;;;;16.70;9.73;;;;;;;-0.02;85.91;98379.63;1718398;83;21152;-58
2021/04/08 03:11:14;;;;;;;20.20;10.48;;;;;;;-0.07;85.95;98383.63;1718168;83;21168;-59
2021/04/08 03:13:45;;;;;;;17.65;10.38;;;;;;;-0.06;86.02;98385.36;1710184;83;21164;-61
2021/04/08 03:16:20;;;;;;;17.55;11.33;;;;;;;-0.05;85.95;98392.16;1718346;82;21611;-61
2021/04/08 03:18:56;;;;;;;17.92;11.00;;;;;;;-0.07;85.91;98392.52;1717925;83;21162;-59
2021/04/08 03:21:27;;;;;;;18.90;10.78;;;;;;;-0.07;85.93;98397.58;1717975;83;21389;-60
2021/04/08 03:23:58;;;;;;;16.02;9.78;;;;;;;-0.08;85.91;98399.23;1717946;82;21243;-59
2021/04/08 03:26:27;;;;;;;21.77;11.03;;;;;;;-0.06;85.89;98408.19;1718330;83;21179;-59
2021/04/08 03:28:56;;;;;;;22.55;11.08;;;;;;;-0.07;85.87;98409.00;1718050;83;21389;-59
2021/04/08 03:31:24;;;;;;;20.30;10.80;;;;;;;-0.08;85.85;98403.03;1718023;82;21314;-59
2021/04/08 03:33:54;;;;;;;17.82;10.78;;;;;;;-0.04;85.85;98406.59;1718259;83;21290;-61
2021/04/08 03:36:25;;;;;;;16.60;9.87;;;;;;;-0.02;85.75;98411.33;1718172;82;21160;-59
2021/04/08 03:38:54;;;;;;;19.62;11.28;;;;;;;0.00;85.72;98417.34;1718320;83;21305;-59
2021/04/08 03:41:23;;;;;;;19.35;11.48;;;;;;;0.00;85.67;98419.88;1718166;83;21334;-60
2021/04/08 03:43:52;;;;;;;19.32;11.60;;;;;;;0.01;85.67;98423.28;1718075;83;21314;-59
2021/04/08 03:46:21;;;;;;;20.35;11.38;;;;;;;0.03;85.64;98427.62;1718261;82;21112;-59
2021/04/08 03:48:50;;;;;;;17.48;11.95;;;;;;;0.03;85.51;98432.70;1718118;83;21204;-59
2021/04/08 03:51:21;;;;;;;19.25;10.95;;;;;;;0.06;85.46;98442.97;1718022;83;21195;-59
2021/04/08 03:53:50;;;;;;;16.73;11.78;;;;;;;0.07;85.37;98433.28;1718068;82;21117;-60
2021/04/08 03:56:20;;;;;;;18.35;11.65;;;;;;;0.10;85.35;98438.51;1717939;83;21299;-60
2021/04/08 03:58:49;;;;;;;19.95;12.20;;;;;;;0.15;85.24;98434.50;1717963;83;21155;-60
2021/04/08 04:01:19;;;;;;;21.37;11.88;;;;;;;0.22;85.11;98433.08;1718149;83;21155;-60
2021/04/08 04:03:49;;;;;;;18.90;11.03;;;;;;;0.28;84.91;98443.88;1717935;82;21168;-59
2021/04/08 04:06:17;;;;;;;20.12;11.85;;;;;;;0.33;84.79;98442.41;1717961;83;21176;-60
2021/04/08 04:08:46;;;;;;;15.93;10.50;;;;;;;0.39;84.65;98449.03;1718164;83;21184;-59
2021/04/08 04:11:14;;;;;;;20.68;12.15;;;;;;;0.48;84.49;98448.14;1718178;82;21164;-61
2021/04/08 04:13:44;;;;;;;19.20;11.00;;;;;;;0.54;84.17;98453.48;1717985;83;21121;-60
2021/04/08 04:16:14;;;;;;;20.43;11.50;;;;;;;0.64;83.94;98458.15;1710301;83;21172;-60
2021/04/08 04:18:42;;;;;;;19.57;11.30;;;;;;;0.72;83.67;98460.14;1710352;83;21693;-61
2021/04/08 04:21:11;;;;;;;19.05;11.35;;;;;;;0.80;83.37;98457.52;1718043;83;21278;-60
2021/04/08 04:23:39;;;;;;;20.35;11.88;;;;;;;0.88;83.24;98461.23;1717933;83;21164;-61
2021/04/08 04:26:07;;;;;;;21.90;11.40;;;;;;;1.02;82.98;98467.75;1717971;82;21310;-59
2021/04/08 04:28:35;;;;;;;21.68;11.85;;;;;;;1.13;82.59;98477.47;1717919;83;21311;-61
2021/04/08 04:31:03;;;;;;;20.77;12.28;;;;;;;1.24;82.16;98478.76;1718111;83;21128;-61
2021/04/08 04:33:31;;;;;;;18.73;11.53;;;;;;;1.32;81.84;98477.38;1718085;83;21148;-60
2021/04/08 04:36:00;;;;;;;23.05;12.03;;;;;;;1.43;81.49;98482.91;1718180;83;21302;-60
2021/04/08 04:38:28;;;;;;;32.15;15.75;;;;;;;1.53;81.02;98485.00;1717894;83;21230;-59
2021/04/08 04:40:56;;;;;;;23.42;13.83;;;;;;;1.60;80.80;98492.03;1717929;83;21172;-59
2021/04/08 04:43:24;;;;;;;21.07;12.68;;;;;;;1.71;80.48;98491.20;1718199;83;21164;-60
2021/04/08 04:45:52;;;;;;;21.20;12.88;;;;;;;1.83;80.15;98484.04;1718189;83;21298;-61
2021/04/08 04:48:20;;;;;;;23.62;12.53;;;;;;;1.96;79.55;98489.17;1718071;83;21183;-60
2021/04/08 04:50:50;;;;;;;20.20;12.60;;;;;;;2.02;79.19;98497.44;1717244;83;21168;-60
2021/04/08 04:53:19;;;;;;;22.02;12.63;;;;;;;2.14;79.06;98494.08;1707549;83;21535;-60
2021/04/08 04:55:47;;;;;;;21.12;11.60;;;;;;;2.27;78.61;98489.02;1714415;82;21152;-59
2021/04/08 04:58:15;;;;;;;21.68;13.00;;;;;;;2.41;78.33;98494.59;1717933;83;21599;-60
2021/04/08 05:00:43;;;;;;;18.42;12.15;;;;;;;2.95;78.05;98503.29;1717505;82;21305;-61
2021/04/08 05:03:11;;;;;;;18.98;11.12;;;;;;;4.36;76.42;98504.20;1716712;82;21148;-60
2021/04/08 05:05:39;;;;;;;19.57;12.40;;;;;;;5.96;72.07;98515.91;1715803;82;21607;-61
2021/04/08 05:08:07;;;;;;;19.82;12.30;;;;;;;7.56;69.14;98520.63;1703625;83;21258;-61
2021/04/08 05:10:35;;;;;;;18.90;11.78;;;;;;;8.96;61.96;98524.19;1701453;83;21159;-60
2021/04/08 05:13:03;;;;;;;16.55;10.88;;;;;;;9.93;60.55;98516.41;1714690;82;21262;-59
2021/04/08 05:15:31;;;;;;;20.27;11.35;;;;;;;11.19;57.23;98525.08;1717921;82;21286;-60
2021/04/08 05:18:01;;;;;;;15.43;10.03;;;;;;;12.25;51.47;98523.31;1715525;82;21693;-61
2021/04/08 05:20:29;;;;;;;18.30;11.35;;;;;;;12.84;49.32;98532.14;1717832;82;21172;-59
2021/04/08 05:22:57;;;;;;;15.48;10.30;;;;;;;13.45;46.01;98532.63;1717806;83;21168;-61
2021/04/08 05:25:25;;;;;;;17.92;10.15;;;;;;;13.56;46.36;98540.36;1714370;82;21167;-61
2021/04/08 05:27:53;;;;;;;13.98;10.00;;;;;;;13.67;44.75;98530.73;1717898;82;21192;-61
2021/04/08 05:30:22;;;;;;;14.38;10.72;;;;;;;13.19;44.27;98534.09;1718200;83;21305;-61
2021/04/08 05:32:50;;;;;;;19.15;10.48;;;;;;;12.74;44.08;98537.79;1718395;83;21690;-65
2021/04/08 05:35:19;;;;;;;15.83;9.85;;;;;;;12.31;45.38;98536.25;1718132;83;21160;-60
2021/04/08 05:37:47;;;;;;;12.53;9.18;;;;;;;12.71;45.23;98551.61;1717716;83;21321;-63
2021/04/08 05:40:17;;;;;;;15.10;10.32;;;;;;;13.57;43.92;98551.14;1717780;83;21180;-63
2021/04/08 05:42:46;;;;;;;14.23;8.93;;;;;;;14.47;42.37;98558.48;1717583;83;21295;-60
2021/04/08 05:45:17;;;;;;;13.98;9.13;;;;;;;15.40;38.44;98567.28;1709904;83;21195;-61
2021/04/08 05:47:46;;;;;;;16.27;9.38;;;;;;;15.69;39.23;98570.76;1717694;82;21350;-62
2021/04/08 05:50:15;;;;;;;12.45;9.20;;;;;;;16.18;37.81;98569.94;1717039;82;21350;-61
2021/04/08 05:52:44;;;;;;;12.28;9.15;;;;;;;16.38;36.89;98573.45;1714375;83;21235;-59
2021/04/08 05:55:12;;;;;;;12.10;9.30;;;;;;;16.91;37.06;98578.09;1717615;82;21266;-62
2021/04/08 05:57:41;;;;;;;13.20;8.90;;;;;;;17.06;35.15;98580.82;1717520;83;21163;-61
2021/04/08 06:00:11;;;;;;;12.73;8.70;;;;;;;17.10;35.47;98577.72;1717421;82;21148;-59
2021/04/08 06:02:39;;;;;;;12.98;9.58;;;;;;;17.32;35.28;98584.60;1717737;83;21242;-61
2021/04/08 06:05:09;;;;;;;11.55;8.80;;;;;;;17.65;35.00;98582.97;1717670;83;21152;-61
2021/04/08 06:07:39;;;;;;;12.33;9.03;;;;;;;18.13;34.20;98586.59;1717605;83;21140;-61
2021/04/08 06:10:08;;;;;;;14.10;8.88;;;;;;;18.70;33.17;98594.67;1717131;82;21192;-60
2021/04/08 06:12:41;;;;;;;12.73;8.50;;;;;;;18.98;31.95;98584.31;1708127;82;21662;-61
2021/04/08 06:15:11;;;;;;;12.58;8.23;;;;;;;18.30;31.98;98588.78;1715485;83;21160;-62
2021/04/08 06:17:40;;;;;;;13.03;9.28;;;;;;;17.95;32.71;98597.52;1713167;82;21567;-62
2021/04/08 06:20:12;;;;;;;11.80;8.13;;;;;;;17.49;33.52;98599.89;1723805;82;21273;-61
2021/04/08 06:22:41;;;;;;;12.47;9.45;;;;;;;17.16;33.97;98593.67;1716496;82;21126;-62
2021/04/08 06:25:10;;;;;;;12.98;9.10;;;;;;;17.72;33.32;98607.17;1718215;82;21145;-63
2021/04/08 06:27:38;;;;;;;13.22;9.33;;;;;;;17.42;33.22;98617.87;1717917;83;21270;-62
2021/04/08 06:30:10;;;;;;;11.10;8.65;;;;;;;16.80;34.21;98615.70;1718104;83;21231;-62
2021/04/08 06:32:38;;;;;;;12.70;8.93;;;;;;;16.22;34.88;98617.15;1717191;82;21206;-62
2021/04/08 06:35:08;;;;;;;10.75;9.05;;;;;;;16.08;35.25;98617.85;1717802;83;21293;-61
2021/04/08 06:37:36;;;;;;;10.98;8.13;;;;;;;15.47;35.68;98616.14;1717742;82;21203;-61
2021/04/08 06:40:26;;;;;;;13.58;8.90;;;;;;;14.56;37.00;98616.44;1711419;83;21289;-61
2021/04/08 06:42:56;;;;;;;17.32;9.80;;;;;;;14.80;37.64;98618.74;1724429;83;21112;-61
2021/04/08 06:45:27;;;;;;;14.30;9.45;;;;;;;15.73;36.51;98615.36;1728220;81;21173;-60
2021/04/08 06:48:09;;;;;;;12.90;9.53;;;;;;;15.91;35.60;98621.17;1723506;82;21382;-60
2021/04/08 06:50:40;;;;;;;13.10;9.25;;;;;;;16.00;35.49;98628.39;1721215;81;21174;-62
2021/04/08 06:53:09;;;;;;;11.53;8.70;;;;;;;15.70;35.46;98634.93;1717742;83;21131;-61
2021/04/08 06:55:37;;;;;;;12.50;8.90;;;;;;;14.83;36.41;98631.69;1723128;83;21321;-62
2021/04/08 06:58:06;;;;;;;12.68;9.38;;;;;;;14.08;38.04;98633.73;1723774;82;21139;-63
2021/04/08 07:00:35;;;;;;;12.80;9.43;;;;;;;14.87;37.98;98635.98;1719983;82;21677;-62
2021/04/08 07:03:05;;;;;;;14.33;10.68;;;;;;;15.16;37.09;98638.25;1723815;82;21199;-61
2021/04/08 07:05:33;;;;;;;13.75;10.08;;;;;;;14.67;37.49;98635.35;1723554;82;21282;-61
2021/04/08 07:08:01;;;;;;;14.30;9.85;;;;;;;13.60;39.11;98649.63;1724203;82;21266;-62
2021/04/08 07:10:31;;;;;;;14.55;10.72;;;;;;;12.72;40.69;98652.15;1737470;81;21134;-63
2021/04/08 07:13:01;;;;;;;12.43;9.85;;;;;;;13.36;40.70;98645.91;1737589;81;21141;-62
2021/04/08 07:15:29;;;;;;;15.80;9.98;;;;;;;14.03;39.19;98654.95;1736858;81;21120;-62
2021/04/08 07:17:58;;;;;;;14.93;10.58;;;;;;;13.78;39.43;98655.57;1737292;81;21259;-62
2021/04/08 07:20:27;;;;;;;12.47;9.25;;;;;;;13.96;39.16;98646.34;1737140;81;21136;-61
2021/04/08 07:23:10;;;;;;;14.73;10.50;;;;;;;13.28;40.02;98670.56;1747969;81;21165;-61
2021/04/08 07:26:10;;;;;;;12.50;9.80;;;;;;;12.42;41.60;98658.27;1742060;81;21266;-62
2021/04/08 07:28:42;;;;;;;14.50;11.33;;;;;;;11.71;43.25;98671.16;1743150;81;21261;-62
2021/04/08 07:31:30;;;;;;;16.57;11.18;;;;;;;11.24;44.34;98663.70;1730846;81;21675;-62
2021/04/08 07:33:59;;;;;;;17.62;11.73;;;;;;;11.21;44.53;98671.44;1732075;81;21160;-62
2021/04/08 07:36:42;;;;;;;13.58;10.55;;;;;;;10.75;45.78;98677.69;1743922;81;21105;-62
2021/04/08 07:39:17;;;;;;;12.85;10.40;;;;;;;11.01;45.41;98673.94;1709586;83;21194;-60
2021/04/08 07:42:02;;;;;;;18.00;11.93;;;;;;;11.01;45.31;98673.94;1715178;81;21239;-64
2021/04/08 07:44:44;;;;;;;14.60;10.40;;;;;;;10.40;46.39;98682.63;1716922;82;21165;-61
2021/04/08 07:47:40;;;;;;;17.10;12.33;;;;;;;9.95;47.46;98687.84;1718995;82;21101;-61
2021/04/08 07:50:15;;;;;;;16.07;11.97;;;;;;;9.61;48.45;98692.64;1729537;82;21154;-60
2021/04/08 07:52:49;;;;;;;16.80;10.88;;;;;;;9.81;48.81;98688.13;1728570;82;21296;-61
2021/04/08 07:55:30;;;;;;;14.70;10.88;;;;;;;10.98;47.28;98697.17;1710372;82;21527;-63
2021/04/08 07:58:12;;;;;;;13.72;10.20;;;;;;;12.56;44.91;98691.45;1715399;82;21191;-61
2021/04/08 08:00:49;;;;;;;13.38;9.68;;;;;;;13.63;43.13;98696.72;1729096;82;21696;-61
2021/04/08 08:03:27;;;;;;;13.53;10.28;;;;;;;14.14;40.80;98702.88;1719509;82;21266;-62
2021/04/08 08:05:59;;;;;;;16.27;9.88;;;;;;;15.15;39.99;98709.73;1720433;82;21153;-63
2021/04/08 08:08:41;;;;;;;13.88;9.75;;;;;;;15.77;38.18;98704.20;1713307;83;21162;-59
2021/04/08 08:11:14;;;;;;;12.07;10.05;;;;;;;15.19;37.78;98715.33;1710766;83;21131;-61
2021/04/08 08:13:55;;;;;;;13.93;10.28;;;;;;;14.31;38.11;98715.28;1708968;84;21161;-61
2021/04/08 08:16:28;;;;;;;13.85;10.82;;;;;;;13.32;39.66;98711.57;1689116;84;21151;-62
2021/04/08 08:18:59;;;;;;;14.73;10.70;;;;;;;12.56;41.04;98710.42;1690721;84;21122;-61
2021/04/08 08:21:37;;;;;;;16.20;10.28;;;;;;;12.46;41.77;98713.03;1712791;83;21315;-62
2021/04/08 08:24:14;;;;;;;14.40;10.53;;;;;;;12.44;41.75;98719.52;1709882;83;21360;-65
2021/04/08 08:26:48;;;;;;;14.60;11.08;;;;;;;12.22;42.18;98719.94;1706396;83;21195;-63
2021/04/08 08:29:26;;;;;;;11.65;9.40;;;;;;;12.43;41.89;98707.42;1712943;84;21312;-63
2021/04/08 08:32:05;;;;;;;14.63;10.48;;;;;;;12.42;42.00;98717.80;1714325;83;21196;-63
2021/04/08 08:34:38;;;;;;;11.33;8.98;;;;;;;12.80;41.13;98731.55;1712792;83;21229;-64
2021/04/08 08:37:13;;;;;;;12.60;8.70;;;;;;;13.68;39.16;98726.94;1710743;83;21360;-62
2021/04/08 08:39:46;;;;;;;11.50;8.98;;;;;;;14.36;37.97;98723.90;1709723;83;21161;-61
2021/04/08 08:42:18;;;;;;;12.58;9.50;;;;;;;14.29;37.87;98717.03;1720869;82;21212;-63
2021/04/08 08:44:47;;;;;;;13.20;8.58;;;;;;;14.14;37.75;98717.14;1698064;83;21209;-64
2021/04/08 08:47:31;;;;;;;11.48;8.33;;;;;;;14.46;38.08;98721.65;1702417;83;21172;-62
2021/04/08 08:50:05;;;;;;;11.35;8.73;;;;;;;14.88;36.03;98733.86;1721465;82;21272;-60
2021/04/08 08:52:36;;;;;;;10.45;7.87;;;;;;;14.58;36.24;98735.41;1726010;82;21245;-61
2021/04/08 08:55:12;;;;;;;11.93;8.95;;;;;;;14.28;36.98;98737.38;1723720;82;21299;-61
2021/04/08 08:57:43;;;;;;;13.50;9.23;;;;;;;14.14;37.23;98729.68;1717815;82;21362;-62
2021/04/08 09:00:12;;;;;;;12.88;7.97;;;;;;;13.71;36.83;98725.20;1706472;83;21388;-62
2021/04/08 09:02:41;;;;;;;11.28;7.97;;;;;;;13.64;37.48;98736.06;1690696;85;21120;-61
2021/04/08 09:05:15;;;;;;;12.90;8.35;;;;;;;13.40;37.55;98740.47;1717587;82;21331;-62
2021/04/08 09:07:45;;;;;;;11.97;8.38;;;;;;;12.98;38.23;98746.63;1720701;82;21311;-62
2021/04/08 09:10:24;;;;;;;12.90;8.80;;;;;;;12.53;38.77;98736.32;1702449;83;21603;-61
2021/04/08 09:12:52;;;;;;;12.20;8.75;;;;;;;11.94;39.90;98753.53;1717643;82;21137;-61
2021/04/08 09:15:22;;;;;;;11.00;7.97;;;;;;;11.73;40.29;98753.03;1728395;82;21168;-61
2021/04/08 09:18:00;;;;;;;10.82;7.83;;;;;;;11.73;40.49;98757.34;1722546;82;21611;-62
2021/04/08 09:20:29;;;;;;;11.45;7.60;;;;;;;11.84;39.68;98762.09;1729771;82;21690;-62
2021/04/08 09:23:04;;;;;;;11.90;7.40;;;;;;;11.95;38.81;98756.53;1729674;82;21307;-62
2021/04/08 09:25:37;;;;;;;10.75;7.30;;;;;;;11.80;39.29;98750.01;1729486;82;21314;-62
2021/04/08 09:28:10;;;;;;;13.40;9.03;;;;;;;11.75;39.57;98756.89;1729636;82;21181;-62
2021/04/08 09:30:59;;;;;;;10.90;7.75;;;;;;;11.55;39.65;98746.91;1677300;84;21181;-61
2021/04/08 09:33:50;;;;;;;12.13;7.90;;;;;;;11.16;40.63;98748.05;1712585;82;21152;-60
2021/04/08 09:36:25;;;;;;;12.70;8.25;;;;;;;11.06;40.59;98733.36;1725369;82;21303;-63
2021/04/08 09:39:01;;;;;;;10.68;7.08;;;;;;;10.95;41.83;98762.14;1717905;82;21145;-62
2021/04/08 09:41:42;;;;;;;10.72;7.80;;;;;;;10.61;40.09;98755.03;1716760;82;21260;-65
2021/04/08 09:44:12;;;;;;;11.12;6.95;;;;;;;9.72;41.38;98758.05;1722358;83;21185;-61
2021/04/08 09:46:50;;;;;;;11.78;7.35;;;;;;;9.23;42.84;98764.31;1731186;82;21215;-65
2021/04/08 09:49:41;;;;;;;9.88;6.80;;;;;;;9.31;43.12;98759.72;1732377;81;21321;-66
2021/04/08 09:52:11;;;;;;;10.70;7.47;;;;;;;9.41;42.13;98771.41;1732706;83;21293;-62
2021/04/08 09:54:57;;;;;;;11.60;7.65;;;;;;;9.44;41.46;98775.30;1731386;82;21173;-68
2021/04/08 09:57:40;;;;;;;10.85;7.33;;;;;;;9.19;41.33;98764.70;1729780;82;21157;-63
2021/04/08 10:00:13;;;;;;;15.60;7.25;;;;;;;8.84;42.72;98768.93;1715496;83;21306;-59
2021/04/08 10:03:06;;;;;;;10.32;7.10;;;;;;;8.99;42.87;98773.87;1696990;83;21393;-62
2021/04/08 10:05:40;;;;;;;12.33;7.35;;;;;;;9.04;41.98;98759.35;1681769;84;21137;-61
2021/04/08 10:08:09;;;;;;;10.53;6.12;;;;;;;8.98;42.22;98775.58;1698042;83;21313;-64
2021/04/08 10:10:43;;;;;;;11.60;6.67;;;;;;;9.09;42.30;98772.72;1698575;83;21597;-64
2021/04/08 10:13:30;;;;;;;11.80;6.30;;;;;;;9.21;41.88;98775.90;1700533;83;21168;-66
2021/04/08 10:16:01;;;;;;;10.28;6.65;;;;;;;9.22;41.86;98780.19;1703512;83;21381;-63
2021/04/08 10:18:33;;;;;;;13.22;6.72;;;;;;;9.07;41.86;98778.27;1699806;83;21327;-61
2021/04/08 10:21:07;;;;;;;12.13;7.70;;;;;;;9.08;42.24;98767.14;1700691;83;21726;-61
2021/04/08 10:23:47;;;;;;;9.93;5.97;;;;;;;9.23;41.98;98761.73;1700583;83;21153;-61
2021/04/08 10:26:23;;;;;;;9.48;5.50;;;;;;;8.85;39.26;98773.26;1700348;83;21398;-61
2021/04/08 10:28:56;;;;;;;9.10;5.90;;;;;;;8.63;40.67;98753.19;1700468;84;21331;-61
2021/04/08 10:31:43;;;;;;;9.48;5.72;;;;;;;8.36;41.37;98768.58;1700258;83;21195;-62
2021/04/08 10:34:19;;;;;;;9.08;5.80;;;;;;;8.05;41.45;98779.61;1700595;83;21205;-62
2021/04/08 10:36:55;;;;;;;11.00;6.28;;;;;;;8.13;42.15;98780.18;1700469;84;21433;-61
2021/04/08 10:39:28;;;;;;;11.30;6.80;;;;;;;8.20;42.57;98780.73;1672518;84;21180;-61
2021/04/08 10:42:12;;;;;;;11.08;6.80;;;;;;;8.35;42.84;98777.14;1685252;84;21163;-62
2021/04/08 10:44:52;;;;;;;14.30;6.75;;;;;;;8.49;42.92;98783.81;1695216;84;21115;-62
2021/04/08 10:47:26;;;;;;;14.68;7.53;;;;;;;8.69;42.70;98784.14;1667353;85;21181;-61
2021/04/08 10:49:57;;;;;;;11.33;6.50;;;;;;;8.94;42.09;98780.66;1680497;85;21594;-60
2021/04/08 10:52:39;;;;;;;11.57;6.87;;;;;;;9.03;42.23;98775.63;1695210;84;21119;-61
2021/04/08 10:55:13;;;;;;;11.45;7.22;;;;;;;9.00;42.52;98782.02;1694928;83;21282;-62
2021/04/08 10:57:42;;;;;;;11.78;6.95;;;;;;;9.10;43.10;98780.02;1708905;83;21184;-62
2021/04/08 11:00:14;;;;;;;10.75;6.37;;;;;;;9.39;43.28;98778.23;1729448;82;21149;-61
2021/04/08 11:02:45;;;;;;;12.00;7.05;;;;;;;9.43;42.41;98786.46;1698087;82;21187;-62
2021/04/08 11:05:25;;;;;;;10.65;6.47;;;;;;;9.28;42.08;98785.41;1695196;83;21289;-62
2021/04/08 11:07:58;;;;;;;12.85;8.13;;;;;;;9.29;42.20;98787.16;1695156;83;21151;-62
2021/04/08 11:10:32;;;;;;;11.93;6.75;;;;;;;9.34;42.85;98780.36;1695290;83;21305;-62
2021/04/08 11:13:02;;;;;;;10.23;6.50;;;;;;;9.27;40.83;98775.97;1695368;84;21143;-63
2021/04/08 11:15:35;;;;;;;13.48;7.58;;;;;;;9.09;41.87;98788.17;1695308;83;21131;-63
2021/04/08 11:18:18;;;;;;;10.78;6.90;;;;;;;9.18;42.46;98794.28;1695136;83;21154;-62
2021/04/08 11:20:50;;;;;;;12.23;6.70;;;;;;;9.26;41.94;98796.14;1695136;83;21182;-62
2021/04/08 11:23:22;;;;;;;;;;;;;;;9.15;42.44;98793.81;1697851;83;21273;-62
2021/04/08 11:26:07;;;;;;;12.53;6.80;;;;;;;8.97;41.69;98789.70;1695121;84;20127;-62
2021/04/08 11:28:42;;;;;;;9.85;6.15;;;;;;;8.70;42.14;98791.00;1695336;84;21207;-63
2021/04/08 11:31:14;;;;;;;10.00;6.25;;;;;;;8.38;42.31;98777.19;1695177;84;21728;-63
2021/04/08 11:33:42;;;;;;;9.78;6.28;;;;;;;8.20;43.29;98793.16;1695275;83;21605;-63
2021/04/08 11:36:21;;;;;;;13.20;6.70;;;;;;;8.24;43.24;98801.39;1699156;83;21597;-62
2021/04/08 11:38:51;;;;;;;9.63;6.28;;;;;;;8.30;43.70;98798.48;1693422;83;21135;-62
2021/04/08 11:41:19;;;;;;;8.98;5.45;;;;;;;8.28;43.95;98807.44;1690821;84;21139;-62
2021/04/08 11:43:52;;;;;;;8.60;5.47;;;;;;;8.21;44.38;98810.73;1688055;85;21326;-62
2021/04/08 11:46:37;;;;;;;9.53;5.62;;;;;;;7.97;44.54;98812.02;1681592;85;21195;-66
2021/04/08 11:49:20;;;;;;;9.53;5.35;;;;;;;7.79;44.50;98816.39;1703278;83;21149;-63
2021/04/08 11:51:50;;;;;;;9.28;4.83;;;;;;;7.80;44.28;98809.55;1702205;83;21365;-62
2021/04/08 11:54:20;;;;;;;12.03;5.62;;;;;;;7.97;44.39;98819.73;1708870;83;21157;-62